Terminal Aerodrome Forecast
Issued by NWS

Home | Current Version | Previous Version | Graphics & Text | Print | Product List | Glossary On
Versions: 1 2 3 4 5 6 7 8 9 10 11 12 13 14 15 16 17 18 19 20 21 22
134
FTUS42 KMHX 030540
TAFOAJ
TAF
KOAJ 030540Z 0306/0406 10005KT P6SM SCT008 BKN025
     FM030900 05004KT 4SM BR OVC008
     FM031300 17014G20KT P6SM SCT025 SCT100
     FM031800 18018G26KT 6SM SHRA BKN045
     FM040100 19014G22KT 4SM SHRA BR VCTS OVC020CB
      AMD LTD TO CLD VIS AND WIND=

USA.gov is the U.S. government's official web portal to all federal, state and local government web resources and services.